Terminal Aerodrome Forecast
Issued by NWS Knoxville/Tri Cities, TN

Home | Current Version | Previous Version | Text Only | Print | Product List | Glossary On
Versions: 1 2 3 4 5 6 7 8 9 10 11 12 13 14 15 16 17 18 19 20 21 22 23 24
000
FTUS44 KMRX 232323
TAFTRI
TAF
KTRI 232323Z 2400/2424 09008KT 6SM -RA SCT050 OVC080
     FM240030 12008KT 3SM -RA BKN040
     FM240200 17007KT P6SM VCSH OVC035
     FM240600 20012KT P6SM BKN025
     FM241400 23015G30KT P6SM BKN040=

USA.gov is the U.S. government's official web portal to all federal, state and local government web resources and services.